sensor_id;sensor_type;location;lat;lon;timestamp;P1;durP1;ratioP1;P2;durP2;ratioP2
79375;SDS011;68846;53.150;18.136;2023-06-10T00:02:23;9.40;;;3.70;;
79375;SDS011;68846;53.150;18.136;2023-06-10T00:04:50;6.10;;;3.60;;
79375;SDS011;68846;53.150;18.136;2023-06-10T00:07:21;6.00;;;3.60;;
79375;SDS011;68846;53.150;18.136;2023-06-10T00:10:07;6.90;;;3.80;;
79375;SDS011;68846;53.150;18.136;2023-06-10T00:12:45;9.80;;;3.70;;
79375;SDS011;68846;53.150;18.136;2023-06-10T00:15:12;9.10;;;3.60;;
79375;SDS011;68846;53.150;18.136;2023-06-10T00:17:38;10.40;;;4.30;;
79375;SDS011;68846;53.150;18.136;2023-06-10T00:20:07;5.50;;;3.80;;
79375;SDS011;68846;53.150;18.136;2023-06-10T00:22:35;8.80;;;4.20;;
79375;SDS011;68846;53.150;18.136;2023-06-10T00:25:02;7.50;;;4.10;;
79375;SDS011;68846;53.150;18.136;2023-06-10T00:27:30;9.00;;;3.50;;
79375;SDS011;68846;53.150;18.136;2023-06-10T00:32:54;10.50;;;4.00;;
79375;SDS011;68846;53.150;18.136;2023-06-10T00:35:21;8.30;;;4.00;;
79375;SDS011;68846;53.150;18.136;2023-06-10T00:37:48;9.00;;;3.90;;
79375;SDS011;68846;53.150;18.136;2023-06-10T00:40:16;8.90;;;3.60;;
79375;SDS011;68846;53.150;18.136;2023-06-10T00:42:42;6.20;;;3.90;;
79375;SDS011;68846;53.150;18.136;2023-06-10T00:45:09;8.40;;;3.80;;
79375;SDS011;68846;53.150;18.136;2023-06-10T00:47:36;5.90;;;3.90;;
79375;SDS011;68846;53.150;18.136;2023-06-10T00:50:04;6.60;;;3.80;;
79375;SDS011;68846;53.150;18.136;2023-06-10T00:52:31;5.30;;;3.50;;
79375;SDS011;68846;53.150;18.136;2023-06-10T00:55:25;6.10;;;3.80;;
79375;SDS011;68846;53.150;18.136;2023-06-10T00:57:53;7.20;;;3.80;;
79375;SDS011;68846;53.150;18.136;2023-06-10T01:00:21;8.00;;;3.40;;
79375;SDS011;68846;53.150;18.136;2023-06-10T01:02:48;6.50;;;3.90;;
79375;SDS011;68846;53.150;18.136;2023-06-10T01:05:15;7.30;;;3.80;;
79375;SDS011;68846;53.150;18.136;2023-06-10T01:07:48;7.70;;;4.00;;
79375;SDS011;68846;53.150;18.136;2023-06-10T01:10:28;7.60;;;3.90;;
79375;SDS011;68846;53.150;18.136;2023-06-10T01:15:34;12.40;;;4.10;;
79375;SDS011;68846;53.150;18.136;2023-06-10T01:18:02;8.10;;;4.10;;
79375;SDS011;68846;53.150;18.136;2023-06-10T01:20:31;7.80;;;4.30;;
79375;SDS011;68846;53.150;18.136;2023-06-10T01:22:59;8.90;;;4.20;;
79375;SDS011;68846;53.150;18.136;2023-06-10T01:25:27;9.30;;;4.50;;
79375;SDS011;68846;53.150;18.136;2023-06-10T01:30:37;6.70;;;3.50;;
79375;SDS011;68846;53.150;18.136;2023-06-10T01:33:27;6.80;;;4.20;;
79375;SDS011;68846;53.150;18.136;2023-06-10T01:35:58;9.50;;;3.90;;
79375;SDS011;68846;53.150;18.136;2023-06-10T01:38:26;7.20;;;3.90;;
79375;SDS011;68846;53.150;18.136;2023-06-10T01:40:55;6.10;;;3.70;;
79375;SDS011;68846;53.150;18.136;2023-06-10T01:43:23;9.10;;;4.00;;
79375;SDS011;68846;53.150;18.136;2023-06-10T01:45:50;7.30;;;4.30;;
79375;SDS011;68846;53.150;18.136;2023-06-10T01:48:17;7.70;;;4.10;;
79375;SDS011;68846;53.150;18.136;2023-06-10T01:50:44;8.60;;;4.10;;
79375;SDS011;68846;53.150;18.136;2023-06-10T01:53:11;8.80;;;4.10;;
79375;SDS011;68846;53.150;18.136;2023-06-10T01:55:38;7.00;;;3.90;;
79375;SDS011;68846;53.150;18.136;2023-06-10T01:58:06;6.90;;;4.20;;
79375;SDS011;68846;53.150;18.136;2023-06-10T02:00:32;6.40;;;3.60;;
79375;SDS011;68846;53.150;18.136;2023-06-10T02:03:01;7.20;;;4.50;;
79375;SDS011;68846;53.150;18.136;2023-06-10T02:05:29;7.80;;;4.10;;
79375;SDS011;68846;53.150;18.136;2023-06-10T02:07:56;6.30;;;3.70;;
79375;SDS011;68846;53.150;18.136;2023-06-10T02:10:22;7.60;;;4.30;;
79375;SDS011;68846;53.150;18.136;2023-06-10T02:12:50;9.30;;;4.50;;
79375;SDS011;68846;53.150;18.136;2023-06-10T02:15:17;7.40;;;4.20;;
79375;SDS011;68846;53.150;18.136;2023-06-10T02:17:47;8.10;;;4.20;;
79375;SDS011;68846;53.150;18.136;2023-06-10T02:20:15;7.00;;;4.50;;
79375;SDS011;68846;53.150;18.136;2023-06-10T02:22:42;8.30;;;4.10;;
79375;SDS011;68846;53.150;18.136;2023-06-10T02:25:09;8.50;;;4.40;;
79375;SDS011;68846;53.150;18.136;2023-06-10T02:27:36;7.50;;;4.60;;
79375;SDS011;68846;53.150;18.136;2023-06-10T02:30:03;6.40;;;4.30;;
79375;SDS011;68846;53.150;18.136;2023-06-10T02:32:33;8.90;;;4.10;;
79375;SDS011;68846;53.150;18.136;2023-06-10T02:35:00;8.50;;;4.10;;
79375;SDS011;68846;53.150;18.136;2023-06-10T02:37:27;8.80;;;4.50;;
79375;SDS011;68846;53.150;18.136;2023-06-10T02:39:55;9.80;;;4.40;;
79375;SDS011;68846;53.150;18.136;2023-06-10T02:42:22;6.10;;;3.60;;
79375;SDS011;68846;53.150;18.136;2023-06-10T02:44:49;7.40;;;4.20;;
79375;SDS011;68846;53.150;18.136;2023-06-10T02:47:22;10.40;;;4.10;;
79375;SDS011;68846;53.150;18.136;2023-06-10T02:49:49;8.70;;;4.90;;
79375;SDS011;68846;53.150;18.136;2023-06-10T02:52:16;8.20;;;4.80;;
79375;SDS011;68846;53.150;18.136;2023-06-10T02:54:43;10.20;;;4.50;;
79375;SDS011;68846;53.150;18.136;2023-06-10T02:57:11;9.40;;;4.50;;
79375;SDS011;68846;53.150;18.136;2023-06-10T02:59:38;8.10;;;4.30;;
79375;SDS011;68846;53.150;18.136;2023-06-10T03:02:05;6.00;;;4.10;;
79375;SDS011;68846;53.150;18.136;2023-06-10T03:04:37;7.50;;;4.30;;
79375;SDS011;68846;53.150;18.136;2023-06-10T03:07:07;8.30;;;4.60;;
79375;SDS011;68846;53.150;18.136;2023-06-10T03:09:36;6.60;;;4.00;;
79375;SDS011;68846;53.150;18.136;2023-06-10T03:12:04;8.30;;;4.90;;
79375;SDS011;68846;53.150;18.136;2023-06-10T03:14:35;5.70;;;3.50;;
79375;SDS011;68846;53.150;18.136;2023-06-10T03:17:04;9.10;;;4.20;;
79375;SDS011;68846;53.150;18.136;2023-06-10T03:19:32;8.20;;;4.40;;
79375;SDS011;68846;53.150;18.136;2023-06-10T03:22:07;6.50;;;4.50;;
79375;SDS011;68846;53.150;18.136;2023-06-10T03:24:36;9.90;;;4.60;;
79375;SDS011;68846;53.150;18.136;2023-06-10T03:27:07;8.50;;;4.60;;
79375;SDS011;68846;53.150;18.136;2023-06-10T03:29:35;6.50;;;4.30;;
79375;SDS011;68846;53.150;18.136;2023-06-10T03:32:03;9.60;;;5.10;;
79375;SDS011;68846;53.150;18.136;2023-06-10T03:34:31;8.20;;;4.50;;
79375;SDS011;68846;53.150;18.136;2023-06-10T03:36:58;9.30;;;4.50;;
79375;SDS011;68846;53.150;18.136;2023-06-10T03:39:25;9.10;;;4.40;;
79375;SDS011;68846;53.150;18.136;2023-06-10T03:41:56;11.40;;;4.50;;
79375;SDS011;68846;53.150;18.136;2023-06-10T03:44:24;9.60;;;4.60;;
79375;SDS011;68846;53.150;18.136;2023-06-10T03:46:52;10.10;;;4.30;;
79375;SDS011;68846;53.150;18.136;2023-06-10T03:49:20;8.90;;;3.80;;
79375;SDS011;68846;53.150;18.136;2023-06-10T03:51:46;7.00;;;4.00;;
79375;SDS011;68846;53.150;18.136;2023-06-10T03:54:14;8.30;;;4.50;;
79375;SDS011;68846;53.150;18.136;2023-06-10T03:56:41;8.60;;;3.60;;
79375;SDS011;68846;53.150;18.136;2023-06-10T03:59:08;7.90;;;3.60;;
79375;SDS011;68846;53.150;18.136;2023-06-10T04:01:34;7.90;;;3.90;;
79375;SDS011;68846;53.150;18.136;2023-06-10T04:04:04;5.50;;;3.20;;
79375;SDS011;68846;53.150;18.136;2023-06-10T04:06:34;5.30;;;3.60;;
79375;SDS011;68846;53.150;18.136;2023-06-10T04:09:01;7.40;;;4.60;;
79375;SDS011;68846;53.150;18.136;2023-06-10T04:11:28;9.10;;;3.90;;
79375;SDS011;68846;53.150;18.136;2023-06-10T04:13:56;8.70;;;3.50;;
79375;SDS011;68846;53.150;18.136;2023-06-10T04:16:24;10.90;;;3.60;;
79375;SDS011;68846;53.150;18.136;2023-06-10T04:18:51;5.60;;;3.80;;
79375;SDS011;68846;53.150;18.136;2023-06-10T04:21:19;6.90;;;3.40;;
79375;SDS011;68846;53.150;18.136;2023-06-10T04:23:46;7.00;;;3.60;;
79375;SDS011;68846;53.150;18.136;2023-06-10T04:26:13;8.90;;;2.90;;
79375;SDS011;68846;53.150;18.136;2023-06-10T04:28:42;7.30;;;3.40;;
79375;SDS011;68846;53.150;18.136;2023-06-10T04:31:09;12.50;;;3.00;;
79375;SDS011;68846;53.150;18.136;2023-06-10T04:33:38;5.70;;;3.10;;
79375;SDS011;68846;53.150;18.136;2023-06-10T04:36:05;7.50;;;3.10;;
79375;SDS011;68846;53.150;18.136;2023-06-10T04:38:33;6.60;;;3.00;;
79375;SDS011;68846;53.150;18.136;2023-06-10T04:41:00;8.60;;;3.30;;
79375;SDS011;68846;53.150;18.136;2023-06-10T04:43:29;4.50;;;3.10;;
79375;SDS011;68846;53.150;18.136;2023-06-10T04:45:58;6.80;;;3.10;;
79375;SDS011;68846;53.150;18.136;2023-06-10T04:48:24;5.80;;;3.10;;
79375;SDS011;68846;53.150;18.136;2023-06-10T04:50:51;5.10;;;3.00;;
79375;SDS011;68846;53.150;18.136;2023-06-10T04:53:19;5.90;;;2.70;;
79375;SDS011;68846;53.150;18.136;2023-06-10T04:55:47;6.20;;;3.10;;
79375;SDS011;68846;53.150;18.136;2023-06-10T04:58:14;5.80;;;2.90;;
79375;SDS011;68846;53.150;18.136;2023-06-10T05:00:41;5.80;;;2.80;;
79375;SDS011;68846;53.150;18.136;2023-06-10T05:03:08;6.80;;;2.90;;
79375;SDS011;68846;53.150;18.136;2023-06-10T05:05:35;4.40;;;2.90;;
79375;SDS011;68846;53.150;18.136;2023-06-10T05:08:02;5.40;;;2.70;;
79375;SDS011;68846;53.150;18.136;2023-06-10T05:10:29;4.90;;;2.50;;
79375;SDS011;68846;53.150;18.136;2023-06-10T05:12:58;8.30;;;3.20;;
79375;SDS011;68846;53.150;18.136;2023-06-10T05:15:25;13.60;;;3.50;;
79375;SDS011;68846;53.150;18.136;2023-06-10T05:17:52;4.40;;;2.90;;
79375;SDS011;68846;53.150;18.136;2023-06-10T05:20:19;6.00;;;2.90;;
79375;SDS011;68846;53.150;18.136;2023-06-10T05:22:46;6.00;;;3.00;;
79375;SDS011;68846;53.150;18.136;2023-06-10T05:25:13;4.90;;;2.60;;
79375;SDS011;68846;53.150;18.136;2023-06-10T05:27:40;5.00;;;3.00;;
79375;SDS011;68846;53.150;18.136;2023-06-10T05:30:09;5.30;;;2.90;;
79375;SDS011;68846;53.150;18.136;2023-06-10T05:32:37;4.90;;;2.80;;
79375;SDS011;68846;53.150;18.136;2023-06-10T05:35:04;7.60;;;3.40;;
79375;SDS011;68846;53.150;18.136;2023-06-10T05:37:33;7.10;;;2.40;;
79375;SDS011;68846;53.150;18.136;2023-06-10T05:40:02;9.40;;;2.70;;
79375;SDS011;68846;53.150;18.136;2023-06-10T05:42:30;7.40;;;3.20;;
79375;SDS011;68846;53.150;18.136;2023-06-10T05:47:23;6.10;;;2.50;;
79375;SDS011;68846;53.150;18.136;2023-06-10T05:49:51;4.10;;;2.20;;
79375;SDS011;68846;53.150;18.136;2023-06-10T05:52:18;4.90;;;2.70;;
79375;SDS011;68846;53.150;18.136;2023-06-10T05:54:45;5.00;;;2.50;;
79375;SDS011;68846;53.150;18.136;2023-06-10T05:57:12;6.50;;;2.70;;
79375;SDS011;68846;53.150;18.136;2023-06-10T05:59:39;6.10;;;3.20;;
79375;SDS011;68846;53.150;18.136;2023-06-10T06:02:06;8.50;;;2.60;;
79375;SDS011;68846;53.150;18.136;2023-06-10T06:04:33;7.90;;;3.00;;
79375;SDS011;68846;53.150;18.136;2023-06-10T06:07:00;8.60;;;3.10;;
79375;SDS011;68846;53.150;18.136;2023-06-10T06:11:54;5.00;;;2.60;;
79375;SDS011;68846;53.150;18.136;2023-06-10T06:14:21;5.80;;;3.10;;
79375;SDS011;68846;53.150;18.136;2023-06-10T06:16:48;6.60;;;2.70;;
79375;SDS011;68846;53.150;18.136;2023-06-10T06:19:14;6.00;;;2.90;;
79375;SDS011;68846;53.150;18.136;2023-06-10T06:21:43;4.90;;;2.90;;
79375;SDS011;68846;53.150;18.136;2023-06-10T06:24:09;10.10;;;3.40;;
79375;SDS011;68846;53.150;18.136;2023-06-10T06:26:36;4.90;;;2.50;;
79375;SDS011;68846;53.150;18.136;2023-06-10T06:29:04;8.10;;;3.30;;
79375;SDS011;68846;53.150;18.136;2023-06-10T06:31:30;5.00;;;3.00;;
79375;SDS011;68846;53.150;18.136;2023-06-10T06:33:57;6.20;;;2.70;;
79375;SDS011;68846;53.150;18.136;2023-06-10T06:36:24;7.10;;;2.80;;
79375;SDS011;68846;53.150;18.136;2023-06-10T06:38:51;8.70;;;2.80;;
79375;SDS011;68846;53.150;18.136;2023-06-10T06:41:19;8.20;;;3.30;;
79375;SDS011;68846;53.150;18.136;2023-06-10T06:43:46;8.50;;;3.30;;
79375;SDS011;68846;53.150;18.136;2023-06-10T06:46:30;4.10;;;2.60;;
79375;SDS011;68846;53.150;18.136;2023-06-10T06:48:57;5.40;;;2.90;;
79375;SDS011;68846;53.150;18.136;2023-06-10T06:51:23;5.90;;;3.20;;
79375;SDS011;68846;53.150;18.136;2023-06-10T06:53:51;8.40;;;3.10;;
79375;SDS011;68846;53.150;18.136;2023-06-10T06:56:21;6.10;;;3.10;;
79375;SDS011;68846;53.150;18.136;2023-06-10T06:58:49;5.40;;;2.70;;
79375;SDS011;68846;53.150;18.136;2023-06-10T07:01:16;4.50;;;3.00;;
79375;SDS011;68846;53.150;18.136;2023-06-10T07:03:43;6.80;;;3.30;;
79375;SDS011;68846;53.150;18.136;2023-06-10T07:06:10;4.20;;;2.70;;
79375;SDS011;68846;53.150;18.136;2023-06-10T07:08:38;4.90;;;3.00;;
79375;SDS011;68846;53.150;18.136;2023-06-10T07:11:05;7.60;;;2.80;;
79375;SDS011;68846;53.150;18.136;2023-06-10T07:13:32;8.60;;;3.30;;
79375;SDS011;68846;53.150;18.136;2023-06-10T07:15:59;5.90;;;3.10;;
79375;SDS011;68846;53.150;18.136;2023-06-10T07:18:26;12.30;;;3.10;;
79375;SDS011;68846;53.150;18.136;2023-06-10T07:20:53;6.10;;;3.10;;
79375;SDS011;68846;53.150;18.136;2023-06-10T07:23:20;9.10;;;3.60;;
79375;SDS011;68846;53.150;18.136;2023-06-10T07:25:47;8.60;;;3.30;;
79375;SDS011;68846;53.150;18.136;2023-06-10T07:28:14;6.50;;;3.60;;
79375;SDS011;68846;53.150;18.136;2023-06-10T07:30:41;6.20;;;3.40;;
79375;SDS011;68846;53.150;18.136;2023-06-10T07:33:08;9.10;;;3.40;;
79375;SDS011;68846;53.150;18.136;2023-06-10T07:35:37;5.90;;;3.70;;
79375;SDS011;68846;53.150;18.136;2023-06-10T07:38:04;8.50;;;3.40;;
79375;SDS011;68846;53.150;18.136;2023-06-10T07:40:31;5.50;;;3.40;;
79375;SDS011;68846;53.150;18.136;2023-06-10T07:42:57;7.50;;;3.00;;
79375;SDS011;68846;53.150;18.136;2023-06-10T07:45:24;6.20;;;2.70;;
79375;SDS011;68846;53.150;18.136;2023-06-10T07:47:52;9.20;;;3.00;;
79375;SDS011;68846;53.150;18.136;2023-06-10T07:50:18;5.20;;;3.10;;
79375;SDS011;68846;53.150;18.136;2023-06-10T07:52:45;4.90;;;2.70;;
79375;SDS011;68846;53.150;18.136;2023-06-10T07:55:13;8.90;;;3.20;;
79375;SDS011;68846;53.150;18.136;2023-06-10T07:57:40;5.50;;;2.90;;
79375;SDS011;68846;53.150;18.136;2023-06-10T08:00:07;5.60;;;2.80;;
79375;SDS011;68846;53.150;18.136;2023-06-10T08:02:40;5.70;;;2.90;;
79375;SDS011;68846;53.150;18.136;2023-06-10T08:05:07;6.20;;;2.80;;
79375;SDS011;68846;53.150;18.136;2023-06-10T08:07:34;4.10;;;2.50;;
79375;SDS011;68846;53.150;18.136;2023-06-10T08:10:02;12.00;;;2.70;;
79375;SDS011;68846;53.150;18.136;2023-06-10T08:12:30;5.40;;;2.60;;
79375;SDS011;68846;53.150;18.136;2023-06-10T08:14:57;6.40;;;3.00;;
79375;SDS011;68846;53.150;18.136;2023-06-10T08:17:24;7.60;;;2.90;;
79375;SDS011;68846;53.150;18.136;2023-06-10T08:19:51;8.30;;;2.50;;
79375;SDS011;68846;53.150;18.136;2023-06-10T08:22:18;4.20;;;2.70;;
79375;SDS011;68846;53.150;18.136;2023-06-10T08:24:45;5.10;;;2.60;;
79375;SDS011;68846;53.150;18.136;2023-06-10T08:27:12;6.10;;;3.10;;
79375;SDS011;68846;53.150;18.136;2023-06-10T08:29:39;7.00;;;2.90;;
79375;SDS011;68846;53.150;18.136;2023-06-10T08:32:06;6.20;;;2.80;;
79375;SDS011;68846;53.150;18.136;2023-06-10T08:34:33;5.80;;;2.80;;
79375;SDS011;68846;53.150;18.136;2023-06-10T08:37:04;10.10;;;3.10;;
79375;SDS011;68846;53.150;18.136;2023-06-10T08:39:31;9.90;;;3.00;;
79375;SDS011;68846;53.150;18.136;2023-06-10T08:42:13;4.90;;;2.80;;
79375;SDS011;68846;53.150;18.136;2023-06-10T08:44:51;6.50;;;2.90;;
79375;SDS011;68846;53.150;18.136;2023-06-10T08:47:24;5.40;;;2.90;;
79375;SDS011;68846;53.150;18.136;2023-06-10T08:49:53;5.20;;;2.90;;
79375;SDS011;68846;53.150;18.136;2023-06-10T08:52:23;5.50;;;2.70;;
79375;SDS011;68846;53.150;18.136;2023-06-10T08:54:59;4.40;;;2.80;;
79375;SDS011;68846;53.150;18.136;2023-06-10T08:57:31;5.20;;;2.70;;
79375;SDS011;68846;53.150;18.136;2023-06-10T08:59:58;6.20;;;2.90;;
79375;SDS011;68846;53.150;18.136;2023-06-10T09:02:25;6.50;;;3.00;;
79375;SDS011;68846;53.150;18.136;2023-06-10T09:04:54;4.50;;;2.70;;
79375;SDS011;68846;53.150;18.136;2023-06-10T09:07:23;8.40;;;2.70;;
79375;SDS011;68846;53.150;18.136;2023-06-10T09:09:51;7.20;;;2.70;;
79375;SDS011;68846;53.150;18.136;2023-06-10T09:12:20;7.50;;;2.60;;
79375;SDS011;68846;53.150;18.136;2023-06-10T09:14:46;6.40;;;3.40;;
79375;SDS011;68846;53.150;18.136;2023-06-10T09:17:13;4.40;;;2.80;;
79375;SDS011;68846;53.150;18.136;2023-06-10T09:19:40;7.10;;;2.70;;
79375;SDS011;68846;53.150;18.136;2023-06-10T09:22:09;6.90;;;2.60;;
79375;SDS011;68846;53.150;18.136;2023-06-10T09:24:36;10.10;;;2.80;;
79375;SDS011;68846;53.150;18.136;2023-06-10T09:27:06;8.50;;;2.70;;
79375;SDS011;68846;53.150;18.136;2023-06-10T09:35:11;8.40;;;2.80;;
79375;SDS011;68846;53.150;18.136;2023-06-10T09:37:38;4.30;;;2.70;;
79375;SDS011;68846;53.150;18.136;2023-06-10T09:40:07;4.30;;;2.50;;
79375;SDS011;68846;53.150;18.136;2023-06-10T09:42:37;6.80;;;3.20;;
79375;SDS011;68846;53.150;18.136;2023-06-10T09:45:06;5.20;;;2.80;;
79375;SDS011;68846;53.150;18.136;2023-06-10T09:47:34;4.20;;;2.60;;
79375;SDS011;68846;53.150;18.136;2023-06-10T09:50:01;4.50;;;3.20;;
79375;SDS011;68846;53.150;18.136;2023-06-10T09:52:29;6.30;;;2.90;;
79375;SDS011;68846;53.150;18.136;2023-06-10T09:55:00;4.50;;;3.00;;
79375;SDS011;68846;53.150;18.136;2023-06-10T09:57:31;6.70;;;2.80;;
79375;SDS011;68846;53.150;18.136;2023-06-10T10:00:04;6.10;;;2.60;;
79375;SDS011;68846;53.150;18.136;2023-06-10T10:02:45;7.20;;;2.80;;
79375;SDS011;68846;53.150;18.136;2023-06-10T10:05:14;4.50;;;2.50;;
79375;SDS011;68846;53.150;18.136;2023-06-10T10:07:43;7.80;;;2.50;;
79375;SDS011;68846;53.150;18.136;2023-06-10T10:10:12;6.40;;;2.80;;
79375;SDS011;68846;53.150;18.136;2023-06-10T10:12:40;8.80;;;2.60;;
79375;SDS011;68846;53.150;18.136;2023-06-10T10:15:09;5.30;;;2.60;;
79375;SDS011;68846;53.150;18.136;2023-06-10T10:17:44;6.20;;;2.80;;
79375;SDS011;68846;53.150;18.136;2023-06-10T10:20:20;6.20;;;2.70;;
79375;SDS011;68846;53.150;18.136;2023-06-10T10:22:56;3.60;;;2.30;;
79375;SDS011;68846;53.150;18.136;2023-06-10T10:25:25;7.60;;;2.70;;
79375;SDS011;68846;53.150;18.136;2023-06-10T10:27:56;6.20;;;2.50;;
79375;SDS011;68846;53.150;18.136;2023-06-10T10:30:28;4.10;;;2.10;;
79375;SDS011;68846;53.150;18.136;2023-06-10T10:33:02;5.20;;;2.60;;
79375;SDS011;68846;53.150;18.136;2023-06-10T10:35:32;3.50;;;2.50;;
79375;SDS011;68846;53.150;18.136;2023-06-10T10:38:02;4.70;;;2.80;;
79375;SDS011;68846;53.150;18.136;2023-06-10T10:40:30;5.70;;;2.90;;
79375;SDS011;68846;53.150;18.136;2023-06-10T10:42:59;6.50;;;2.60;;
79375;SDS011;68846;53.150;18.136;2023-06-10T10:45:28;6.30;;;2.80;;
79375;SDS011;68846;53.150;18.136;2023-06-10T10:47:56;3.10;;;2.50;;
79375;SDS011;68846;53.150;18.136;2023-06-10T10:50:24;5.30;;;2.50;;
79375;SDS011;68846;53.150;18.136;2023-06-10T10:53:01;8.10;;;2.60;;
79375;SDS011;68846;53.150;18.136;2023-06-10T10:55:29;4.90;;;2.60;;
79375;SDS011;68846;53.150;18.136;2023-06-10T10:58:03;7.80;;;2.50;;
79375;SDS011;68846;53.150;18.136;2023-06-10T11:00:36;5.60;;;2.30;;
79375;SDS011;68846;53.150;18.136;2023-06-10T11:03:06;5.60;;;2.50;;
79375;SDS011;68846;53.150;18.136;2023-06-10T11:05:38;7.40;;;2.50;;
79375;SDS011;68846;53.150;18.136;2023-06-10T11:08:10;3.20;;;2.40;;
79375;SDS011;68846;53.150;18.136;2023-06-10T11:10:39;6.70;;;2.70;;
79375;SDS011;68846;53.150;18.136;2023-06-10T11:13:08;6.90;;;2.40;;
79375;SDS011;68846;53.150;18.136;2023-06-10T11:15:45;4.30;;;2.20;;
79375;SDS011;68846;53.150;18.136;2023-06-10T11:18:20;4.60;;;2.20;;
79375;SDS011;68846;53.150;18.136;2023-06-10T11:21:04;7.40;;;2.50;;
79375;SDS011;68846;53.150;18.136;2023-06-10T11:31:20;3.60;;;2.20;;
79375;SDS011;68846;53.150;18.136;2023-06-10T11:33:52;6.40;;;2.00;;
79375;SDS011;68846;53.150;18.136;2023-06-10T11:36:23;6.10;;;2.20;;
79375;SDS011;68846;53.150;18.136;2023-06-10T11:38:58;3.80;;;2.10;;
79375;SDS011;68846;53.150;18.136;2023-06-10T11:41:27;4.30;;;2.20;;
79375;SDS011;68846;53.150;18.136;2023-06-10T11:44:12;3.60;;;2.30;;
79375;SDS011;68846;53.150;18.136;2023-06-10T11:46:40;6.20;;;2.30;;
79375;SDS011;68846;53.150;18.136;2023-06-10T11:49:09;8.70;;;2.30;;
79375;SDS011;68846;53.150;18.136;2023-06-10T11:51:36;5.90;;;2.20;;
79375;SDS011;68846;53.150;18.136;2023-06-10T11:54:09;4.60;;;2.20;;
79375;SDS011;68846;53.150;18.136;2023-06-10T11:56:36;3.70;;;2.10;;
79375;SDS011;68846;53.150;18.136;2023-06-10T11:59:06;3.70;;;2.30;;
79375;SDS011;68846;53.150;18.136;2023-06-10T12:01:34;5.70;;;2.10;;
79375;SDS011;68846;53.150;18.136;2023-06-10T12:04:04;3.90;;;1.80;;
79375;SDS011;68846;53.150;18.136;2023-06-10T12:06:47;4.70;;;2.10;;
79375;SDS011;68846;53.150;18.136;2023-06-10T12:09:16;4.10;;;1.90;;
79375;SDS011;68846;53.150;18.136;2023-06-10T12:11:45;4.10;;;2.10;;
79375;SDS011;68846;53.150;18.136;2023-06-10T12:14:14;4.60;;;2.00;;
79375;SDS011;68846;53.150;18.136;2023-06-10T12:16:47;4.90;;;2.30;;
79375;SDS011;68846;53.150;18.136;2023-06-10T12:19:15;4.40;;;2.30;;
79375;SDS011;68846;53.150;18.136;2023-06-10T12:21:42;5.60;;;2.50;;
79375;SDS011;68846;53.150;18.136;2023-06-10T12:24:11;5.40;;;2.40;;
79375;SDS011;68846;53.150;18.136;2023-06-10T12:26:39;3.00;;;1.90;;
79375;SDS011;68846;53.150;18.136;2023-06-10T12:34:39;4.30;;;1.80;;
79375;SDS011;68846;53.150;18.136;2023-06-10T12:37:12;4.00;;;2.00;;
79375;SDS011;68846;53.150;18.136;2023-06-10T12:39:40;4.80;;;2.10;;
79375;SDS011;68846;53.150;18.136;2023-06-10T12:42:08;4.10;;;2.00;;
79375;SDS011;68846;53.150;18.136;2023-06-10T12:44:39;4.40;;;1.80;;
79375;SDS011;68846;53.150;18.136;2023-06-10T12:47:10;4.90;;;2.20;;
79375;SDS011;68846;53.150;18.136;2023-06-10T12:49:41;4.30;;;1.90;;
79375;SDS011;68846;53.150;18.136;2023-06-10T12:52:08;3.10;;;2.00;;
79375;SDS011;68846;53.150;18.136;2023-06-10T12:54:35;3.80;;;1.90;;
79375;SDS011;68846;53.150;18.136;2023-06-10T12:57:02;5.20;;;2.20;;
79375;SDS011;68846;53.150;18.136;2023-06-10T12:59:29;3.60;;;2.00;;
79375;SDS011;68846;53.150;18.136;2023-06-10T13:01:58;4.10;;;2.00;;
79375;SDS011;68846;53.150;18.136;2023-06-10T13:04:25;3.80;;;2.10;;
79375;SDS011;68846;53.150;18.136;2023-06-10T13:06:53;4.30;;;2.40;;
79375;SDS011;68846;53.150;18.136;2023-06-10T13:09:20;6.70;;;2.20;;
79375;SDS011;68846;53.150;18.136;2023-06-10T13:11:49;2.50;;;2.10;;
79375;SDS011;68846;53.150;18.136;2023-06-10T13:14:16;4.90;;;2.20;;
79375;SDS011;68846;53.150;18.136;2023-06-10T13:16:42;5.20;;;2.10;;
79375;SDS011;68846;53.150;18.136;2023-06-10T13:19:11;6.20;;;2.20;;
79375;SDS011;68846;53.150;18.136;2023-06-10T13:21:38;5.60;;;2.30;;
79375;SDS011;68846;53.150;18.136;2023-06-10T13:24:04;4.30;;;2.30;;
79375;SDS011;68846;53.150;18.136;2023-06-10T13:26:32;2.90;;;2.10;;
79375;SDS011;68846;53.150;18.136;2023-06-10T13:28:59;3.40;;;2.00;;
79375;SDS011;68846;53.150;18.136;2023-06-10T13:31:26;5.50;;;2.20;;
79375;SDS011;68846;53.150;18.136;2023-06-10T13:33:52;2.30;;;1.70;;
79375;SDS011;68846;53.150;18.136;2023-06-10T13:36:20;3.30;;;2.10;;
79375;SDS011;68846;53.150;18.136;2023-06-10T13:38:46;2.20;;;1.70;;
79375;SDS011;68846;53.150;18.136;2023-06-10T13:41:15;3.70;;;2.10;;
79375;SDS011;68846;53.150;18.136;2023-06-10T13:43:45;4.10;;;1.90;;
79375;SDS011;68846;53.150;18.136;2023-06-10T13:46:12;3.10;;;2.00;;
79375;SDS011;68846;53.150;18.136;2023-06-10T13:48:39;6.70;;;2.20;;
79375;SDS011;68846;53.150;18.136;2023-06-10T13:51:06;4.90;;;1.80;;
79375;SDS011;68846;53.150;18.136;2023-06-10T13:53:33;2.50;;;1.60;;
79375;SDS011;68846;53.150;18.136;2023-06-10T13:56:00;3.50;;;1.80;;
79375;SDS011;68846;53.150;18.136;2023-06-10T13:58:27;4.10;;;1.90;;
79375;SDS011;68846;53.150;18.136;2023-06-10T14:00:54;3.10;;;1.90;;
79375;SDS011;68846;53.150;18.136;2023-06-10T14:03:21;3.10;;;1.80;;
79375;SDS011;68846;53.150;18.136;2023-06-10T14:05:48;3.10;;;2.20;;
79375;SDS011;68846;53.150;18.136;2023-06-10T14:08:16;6.10;;;2.00;;
79375;SDS011;68846;53.150;18.136;2023-06-10T14:10:43;4.70;;;2.20;;
79375;SDS011;68846;53.150;18.136;2023-06-10T14:13:10;2.50;;;1.70;;
79375;SDS011;68846;53.150;18.136;2023-06-10T14:15:38;2.90;;;1.80;;
79375;SDS011;68846;53.150;18.136;2023-06-10T14:18:05;3.60;;;1.60;;
79375;SDS011;68846;53.150;18.136;2023-06-10T14:20:32;2.40;;;2.00;;
79375;SDS011;68846;53.150;18.136;2023-06-10T14:22:59;4.10;;;1.60;;
79375;SDS011;68846;53.150;18.136;2023-06-10T14:25:26;5.10;;;1.80;;
79375;SDS011;68846;53.150;18.136;2023-06-10T14:27:53;2.40;;;1.60;;
79375;SDS011;68846;53.150;18.136;2023-06-10T14:30:20;6.90;;;2.10;;
79375;SDS011;68846;53.150;18.136;2023-06-10T14:32:47;5.00;;;1.70;;
79375;SDS011;68846;53.150;18.136;2023-06-10T14:35:14;3.10;;;1.70;;
79375;SDS011;68846;53.150;18.136;2023-06-10T14:37:41;2.90;;;1.60;;
79375;SDS011;68846;53.150;18.136;2023-06-10T14:40:09;3.40;;;1.70;;
79375;SDS011;68846;53.150;18.136;2023-06-10T14:42:39;3.20;;;1.90;;
79375;SDS011;68846;53.150;18.136;2023-06-10T14:45:06;4.40;;;1.80;;
79375;SDS011;68846;53.150;18.136;2023-06-10T14:47:34;4.20;;;1.70;;
79375;SDS011;68846;53.150;18.136;2023-06-10T14:50:01;3.10;;;1.30;;
79375;SDS011;68846;53.150;18.136;2023-06-10T14:52:28;5.00;;;1.70;;
79375;SDS011;68846;53.150;18.136;2023-06-10T14:54:54;4.60;;;1.40;;
79375;SDS011;68846;53.150;18.136;2023-06-10T14:57:22;3.40;;;1.40;;
79375;SDS011;68846;53.150;18.136;2023-06-10T14:59:49;4.90;;;1.70;;
79375;SDS011;68846;53.150;18.136;2023-06-10T15:02:41;4.30;;;1.70;;
79375;SDS011;68846;53.150;18.136;2023-06-10T15:05:09;2.00;;;1.60;;
79375;SDS011;68846;53.150;18.136;2023-06-10T15:07:36;3.60;;;1.50;;
79375;SDS011;68846;53.150;18.136;2023-06-10T15:10:07;3.20;;;2.00;;
79375;SDS011;68846;53.150;18.136;2023-06-10T15:12:34;6.10;;;1.70;;
79375;SDS011;68846;53.150;18.136;2023-06-10T15:15:02;2.20;;;1.30;;